sensor_id;sensor_type;location;lat;lon;timestamp;pressure;altitude;pressure_sealevel;temperature;humidity
37238;BME280;23129;49.662;8.448;2023-04-01T00:01:14;99154.25;;;11.32;100.00
37238;BME280;23129;49.662;8.448;2023-04-01T00:03:45;99141.34;;;11.27;100.00
37238;BME280;23129;49.662;8.448;2023-04-01T00:06:16;99152.94;;;11.23;100.00
37238;BME280;23129;49.662;8.448;2023-04-01T00:08:45;99158.41;;;11.18;100.00
37238;BME280;23129;49.662;8.448;2023-04-01T00:11:14;99148.94;;;11.16;100.00
37238;BME280;23129;49.662;8.448;2023-04-01T00:13:43;99150.78;;;11.14;100.00
37238;BME280;23129;49.662;8.448;2023-04-01T00:16:12;99149.09;;;11.13;100.00
37238;BME280;23129;49.662;8.448;2023-04-01T00:18:50;99156.88;;;11.14;100.00
37238;BME280;23129;49.662;8.448;2023-04-01T00:21:20;99140.28;;;11.14;100.00
37238;BME280;23129;49.662;8.448;2023-04-01T00:23:49;99156.09;;;11.12;100.00
37238;BME280;23129;49.662;8.448;2023-04-01T00:26:19;99160.50;;;11.12;100.00
37238;BME280;23129;49.662;8.448;2023-04-01T00:28:49;99143.06;;;11.11;100.00
37238;BME280;23129;49.662;8.448;2023-04-01T00:31:18;99149.38;;;11.07;100.00
37238;BME280;23129;49.662;8.448;2023-04-01T00:33:47;99139.03;;;11.04;100.00
37238;BME280;23129;49.662;8.448;2023-04-01T00:36:19;99133.94;;;11.01;100.00
37238;BME280;23129;49.662;8.448;2023-04-01T00:38:48;99139.34;;;10.97;100.00
37238;BME280;23129;49.662;8.448;2023-04-01T00:41:20;99165.75;;;10.94;100.00
37238;BME280;23129;49.662;8.448;2023-04-01T00:43:50;99148.16;;;10.96;100.00
37238;BME280;23129;49.662;8.448;2023-04-01T00:46:19;99153.41;;;10.96;100.00
37238;BME280;23129;49.662;8.448;2023-04-01T00:48:51;99170.09;;;10.95;100.00
37238;BME280;23129;49.662;8.448;2023-04-01T00:51:26;99129.00;;;10.94;100.00
37238;BME280;23129;49.662;8.448;2023-04-01T00:53:57;99131.63;;;10.94;100.00
37238;BME280;23129;49.662;8.448;2023-04-01T00:56:30;99146.53;;;10.94;100.00
37238;BME280;23129;49.662;8.448;2023-04-01T00:59:04;99136.13;;;10.92;100.00
37238;BME280;23129;49.662;8.448;2023-04-01T01:01:36;99135.19;;;10.93;100.00
37238;BME280;23129;49.662;8.448;2023-04-01T01:04:04;99132.56;;;10.93;100.00
37238;BME280;23129;49.662;8.448;2023-04-01T01:06:44;99150.00;;;10.94;100.00
37238;BME280;23129;49.662;8.448;2023-04-01T01:09:28;99137.66;;;10.96;100.00
37238;BME280;23129;49.662;8.448;2023-04-01T01:12:06;99121.91;;;10.96;100.00
37238;BME280;23129;49.662;8.448;2023-04-01T01:14:49;99137.75;;;10.95;100.00
37238;BME280;23129;49.662;8.448;2023-04-01T01:17:29;99108.91;;;10.95;100.00
37238;BME280;23129;49.662;8.448;2023-04-01T01:20:42;99135.34;;;10.90;100.00
37238;BME280;23129;49.662;8.448;2023-04-01T01:27:00;99120.56;;;10.89;100.00
37238;BME280;23129;49.662;8.448;2023-04-01T01:36:14;99098.84;;;10.86;100.00
37238;BME280;23129;49.662;8.448;2023-04-01T01:38:44;99099.72;;;10.86;100.00
37238;BME280;23129;49.662;8.448;2023-04-01T01:41:16;99117.31;;;10.84;100.00
37238;BME280;23129;49.662;8.448;2023-04-01T01:43:48;99118.16;;;10.85;100.00
37238;BME280;23129;49.662;8.448;2023-04-01T01:46:23;99104.97;;;10.86;100.00
37238;BME280;23129;49.662;8.448;2023-04-01T01:48:53;99117.38;;;10.83;100.00
37238;BME280;23129;49.662;8.448;2023-04-01T01:51:25;99104.34;;;10.81;100.00
37238;BME280;23129;49.662;8.448;2023-04-01T01:53:55;99099.09;;;10.81;100.00
37238;BME280;23129;49.662;8.448;2023-04-01T01:56:26;99092.16;;;10.80;100.00
37238;BME280;23129;49.662;8.448;2023-04-01T01:59:00;99105.97;;;10.84;100.00
37238;BME280;23129;49.662;8.448;2023-04-01T02:01:37;99096.31;;;10.84;100.00
37238;BME280;23129;49.662;8.448;2023-04-01T02:04:13;99092.06;;;10.82;100.00
37238;BME280;23129;49.662;8.448;2023-04-01T02:06:50;99119.13;;;10.82;100.00
37238;BME280;23129;49.662;8.448;2023-04-01T02:09:21;99104.19;;;10.84;100.00
37238;BME280;23129;49.662;8.448;2023-04-01T02:11:52;99121.72;;;10.84;100.00
37238;BME280;23129;49.662;8.448;2023-04-01T02:14:23;99116.47;;;10.84;100.00
37238;BME280;23129;49.662;8.448;2023-04-01T02:16:56;99098.16;;;10.82;100.00
37238;BME280;23129;49.662;8.448;2023-04-01T02:19:31;99093.75;;;10.83;100.00
37238;BME280;23129;49.662;8.448;2023-04-01T02:22:04;99109.50;;;10.83;100.00
37238;BME280;23129;49.662;8.448;2023-04-01T02:24:35;99114.69;;;10.84;100.00
37238;BME280;23129;49.662;8.448;2023-04-01T02:27:06;99101.56;;;10.84;100.00
37238;BME280;23129;49.662;8.448;2023-04-01T02:29:35;99112.06;;;10.84;100.00
37238;BME280;23129;49.662;8.448;2023-04-01T02:32:07;99114.75;;;10.83;100.00
37238;BME280;23129;49.662;8.448;2023-04-01T02:34:37;99102.56;;;10.82;100.00
37238;BME280;23129;49.662;8.448;2023-04-01T02:37:07;99114.16;;;10.78;100.00
37238;BME280;23129;49.662;8.448;2023-04-01T02:39:36;99100.34;;;10.74;100.00
37238;BME280;23129;49.662;8.448;2023-04-01T02:42:04;99106.66;;;10.70;100.00
37238;BME280;23129;49.662;8.448;2023-04-01T02:44:33;99100.78;;;10.65;100.00
37238;BME280;23129;49.662;8.448;2023-04-01T02:47:02;99099.19;;;10.62;100.00
37238;BME280;23129;49.662;8.448;2023-04-01T02:49:31;99106.31;;;10.59;100.00
37238;BME280;23129;49.662;8.448;2023-04-01T02:52:01;99107.25;;;10.58;100.00
37238;BME280;23129;49.662;8.448;2023-04-01T02:54:30;99096.88;;;10.56;100.00
37238;BME280;23129;49.662;8.448;2023-04-01T02:56:59;99104.00;;;10.52;100.00
37238;BME280;23129;49.662;8.448;2023-04-01T02:59:28;99102.41;;;10.50;100.00
37238;BME280;23129;49.662;8.448;2023-04-01T03:01:56;99102.56;;;10.47;100.00
37238;BME280;23129;49.662;8.448;2023-04-01T03:04:25;99093.81;;;10.46;100.00
37238;BME280;23129;49.662;8.448;2023-04-01T03:06:54;99103.41;;;10.47;100.00
37238;BME280;23129;49.662;8.448;2023-04-01T03:09:22;99108.66;;;10.47;100.00
37238;BME280;23129;49.662;8.448;2023-04-01T03:11:52;99105.19;;;10.47;100.00
37238;BME280;23129;49.662;8.448;2023-04-01T03:14:21;99107.94;;;10.44;100.00
37238;BME280;23129;49.662;8.448;2023-04-01T03:16:49;99101.84;;;10.43;100.00
37238;BME280;23129;49.662;8.448;2023-04-01T03:19:18;99109.78;;;10.42;100.00
37238;BME280;23129;49.662;8.448;2023-04-01T03:21:47;99110.63;;;10.42;100.00
37238;BME280;23129;49.662;8.448;2023-04-01T03:24:16;99099.22;;;10.43;100.00
37238;BME280;23129;49.662;8.448;2023-04-01T03:26:44;99123.75;;;10.42;100.00
37238;BME280;23129;49.662;8.448;2023-04-01T03:29:14;99106.19;;;10.44;100.00
37238;BME280;23129;49.662;8.448;2023-04-01T03:31:43;99102.56;;;10.47;100.00
37238;BME280;23129;49.662;8.448;2023-04-01T03:34:11;99113.91;;;10.47;100.00
37238;BME280;23129;49.662;8.448;2023-04-01T03:36:40;99128.69;;;10.48;100.00
37238;BME280;23129;49.662;8.448;2023-04-01T03:39:09;99114.59;;;10.51;100.00
37238;BME280;23129;49.662;8.448;2023-04-01T03:41:41;99106.56;;;10.54;100.00
37238;BME280;23129;49.662;8.448;2023-04-01T03:44:09;99116.97;;;10.56;100.00
37238;BME280;23129;49.662;8.448;2023-04-01T03:46:39;99112.59;;;10.56;100.00
37238;BME280;23129;49.662;8.448;2023-04-01T03:49:09;99118.69;;;10.57;100.00
37238;BME280;23129;49.662;8.448;2023-04-01T03:51:39;99113.44;;;10.57;100.00
37238;BME280;23129;49.662;8.448;2023-04-01T03:54:08;99101.22;;;10.56;100.00
37238;BME280;23129;49.662;8.448;2023-04-01T03:56:37;99106.47;;;10.56;100.00
37238;BME280;23129;49.662;8.448;2023-04-01T03:59:07;99109.88;;;10.58;100.00
37238;BME280;23129;49.662;8.448;2023-04-01T04:01:35;99116.81;;;10.59;100.00
37238;BME280;23129;49.662;8.448;2023-04-01T04:04:05;99120.06;;;10.64;100.00
37238;BME280;23129;49.662;8.448;2023-04-01T04:06:34;99113.81;;;10.66;100.00
37238;BME280;23129;49.662;8.448;2023-04-01T04:09:03;99116.38;;;10.68;100.00
37238;BME280;23129;49.662;8.448;2023-04-01T04:11:31;99122.47;;;10.68;100.00
37238;BME280;23129;49.662;8.448;2023-04-01T04:14:01;99093.53;;;10.70;100.00
37238;BME280;23129;49.662;8.448;2023-04-01T04:16:30;99108.38;;;10.71;100.00
37238;BME280;23129;49.662;8.448;2023-04-01T04:19:02;99126.72;;;10.71;100.00
37238;BME280;23129;49.662;8.448;2023-04-01T04:21:31;99110.13;;;10.70;100.00
37238;BME280;23129;49.662;8.448;2023-04-01T04:24:01;99111.00;;;10.71;100.00
37238;BME280;23129;49.662;8.448;2023-04-01T04:26:49;99105.75;;;10.71;100.00
37238;BME280;23129;49.662;8.448;2023-04-01T04:29:18;99117.91;;;10.72;100.00
37238;BME280;23129;49.662;8.448;2023-04-01T04:31:46;99112.69;;;10.72;100.00
37238;BME280;23129;49.662;8.448;2023-04-01T04:34:15;99116.06;;;10.74;100.00
37238;BME280;23129;49.662;8.448;2023-04-01T04:36:46;99107.28;;;10.75;100.00
37238;BME280;23129;49.662;8.448;2023-04-01T04:39:15;99102.09;;;10.73;100.00
37238;BME280;23129;49.662;8.448;2023-04-01T04:41:44;99107.44;;;10.72;100.00
37238;BME280;23129;49.662;8.448;2023-04-01T04:44:13;99106.59;;;10.71;100.00
37238;BME280;23129;49.662;8.448;2023-04-01T04:46:42;99102.19;;;10.72;100.00
37238;BME280;23129;49.662;8.448;2023-04-01T04:49:14;99112.69;;;10.72;100.00
37238;BME280;23129;49.662;8.448;2023-04-01T04:51:43;99115.16;;;10.75;100.00
37238;BME280;23129;49.662;8.448;2023-04-01T04:54:15;99110.84;;;10.74;100.00
37238;BME280;23129;49.662;8.448;2023-04-01T04:57:03;99116.13;;;10.72;100.00
37238;BME280;23129;49.662;8.448;2023-04-01T04:59:38;99158.78;;;10.76;100.00
37238;BME280;23129;49.662;8.448;2023-04-01T05:02:18;99117.75;;;10.75;100.00
37238;BME280;23129;49.662;8.448;2023-04-01T05:04:47;99110.69;;;10.77;100.00
37238;BME280;23129;49.662;8.448;2023-04-01T05:07:15;99121.16;;;10.77;100.00
37238;BME280;23129;49.662;8.448;2023-04-01T05:09:45;99114.22;;;10.76;100.00
37238;BME280;23129;49.662;8.448;2023-04-01T05:12:14;99115.16;;;10.75;100.00
37238;BME280;23129;49.662;8.448;2023-04-01T05:14:58;99111.59;;;10.76;100.00
37238;BME280;23129;49.662;8.448;2023-04-01T05:17:26;99123.78;;;10.77;100.00
37238;BME280;23129;49.662;8.448;2023-04-01T05:19:55;99135.03;;;10.79;100.00
37238;BME280;23129;49.662;8.448;2023-04-01T05:22:24;99095.78;;;10.78;100.00
37238;BME280;23129;49.662;8.448;2023-04-01T05:24:53;99108.06;;;10.77;100.00
37238;BME280;23129;49.662;8.448;2023-04-01T05:27:23;99108.97;;;10.76;100.00
37238;BME280;23129;49.662;8.448;2023-04-01T05:29:51;99123.00;;;10.75;100.00
37238;BME280;23129;49.662;8.448;2023-04-01T05:32:55;99101.34;;;10.71;100.00
37238;BME280;23129;49.662;8.448;2023-04-01T05:35:24;99105.75;;;10.71;100.00
37238;BME280;23129;49.662;8.448;2023-04-01T05:37:52;99103.28;;;10.68;100.00
37238;BME280;23129;49.662;8.448;2023-04-01T05:40:23;99112.03;;;10.67;100.00
37238;BME280;23129;49.662;8.448;2023-04-01T05:42:53;99092.78;;;10.68;100.00
37238;BME280;23129;49.662;8.448;2023-04-01T05:45:22;99097.09;;;10.69;100.00
37238;BME280;23129;49.662;8.448;2023-04-01T05:48:00;99094.38;;;10.70;100.00
37238;BME280;23129;49.662;8.448;2023-04-01T05:50:32;99087.38;;;10.71;100.00
37238;BME280;23129;49.662;8.448;2023-04-01T05:53:02;99091.75;;;10.70;100.00
37238;BME280;23129;49.662;8.448;2023-04-01T05:55:31;99090.00;;;10.71;100.00
37238;BME280;23129;49.662;8.448;2023-04-01T05:58:00;99088.28;;;10.70;100.00
37238;BME280;23129;49.662;8.448;2023-04-01T06:00:29;99093.53;;;10.70;100.00
37238;BME280;23129;49.662;8.448;2023-04-01T06:02:59;99086.59;;;10.69;100.00
37238;BME280;23129;49.662;8.448;2023-04-01T06:05:30;99081.38;;;10.69;100.00
37238;BME280;23129;49.662;8.448;2023-04-01T06:08:08;99075.28;;;10.68;100.00
37238;BME280;23129;49.662;8.448;2023-04-01T06:10:51;99070.94;;;10.67;100.00
37238;BME280;23129;49.662;8.448;2023-04-01T06:13:34;99090.16;;;10.68;100.00
37238;BME280;23129;49.662;8.448;2023-04-01T06:16:14;99098.03;;;10.68;100.00
37238;BME280;23129;49.662;8.448;2023-04-01T06:18:59;99089.28;;;10.67;100.00
37238;BME280;23129;49.662;8.448;2023-04-01T06:22:08;99088.44;;;10.67;100.00
37238;BME280;23129;49.662;8.448;2023-04-01T06:25:16;99083.19;;;10.67;100.00
37238;BME280;23129;49.662;8.448;2023-04-01T06:28:06;99086.66;;;10.67;100.00
37238;BME280;23129;49.662;8.448;2023-04-01T06:30:42;99083.03;;;10.70;99.79
37238;BME280;23129;49.662;8.448;2023-04-01T06:33:29;99090.06;;;10.69;99.51
37238;BME280;23129;49.662;8.448;2023-04-01T06:36:43;99083.13;;;10.68;99.80
37238;BME280;23129;49.662;8.448;2023-04-01T06:39:35;99082.22;;;10.69;100.00
37238;BME280;23129;49.662;8.448;2023-04-01T06:42:22;99087.44;;;10.69;99.64
37238;BME280;23129;49.662;8.448;2023-04-01T06:45:10;99072.50;;;10.71;99.54
37238;BME280;23129;49.662;8.448;2023-04-01T06:48:18;99095.25;;;10.71;99.63
37238;BME280;23129;49.662;8.448;2023-04-01T06:51:32;99083.75;;;10.73;99.81
37238;BME280;23129;49.662;8.448;2023-04-01T06:54:29;99096.00;;;10.73;100.00
37238;BME280;23129;49.662;8.448;2023-04-01T06:57:11;99083.66;;;10.75;100.00
37238;BME280;23129;49.662;8.448;2023-04-01T06:59:48;99098.47;;;10.76;100.00
37238;BME280;23129;49.662;8.448;2023-04-01T07:02:28;99090.53;;;10.78;100.00
37238;BME280;23129;49.662;8.448;2023-04-01T07:04:58;99085.19;;;10.79;100.00
37238;BME280;23129;49.662;8.448;2023-04-01T07:07:35;99101.72;;;10.81;100.00
37238;BME280;23129;49.662;8.448;2023-04-01T07:10:13;99092.00;;;10.83;100.00
37238;BME280;23129;49.662;8.448;2023-04-01T07:13:05;99092.06;;;10.82;100.00
37238;BME280;23129;49.662;8.448;2023-04-01T07:16:07;99082.41;;;10.82;100.00
37238;BME280;23129;49.662;8.448;2023-04-01T07:18:47;99088.44;;;10.84;100.00
37238;BME280;23129;49.662;8.448;2023-04-01T07:21:26;99086.59;;;10.86;100.00
37238;BME280;23129;49.662;8.448;2023-04-01T07:24:05;99103.09;;;10.88;100.00
37238;BME280;23129;49.662;8.448;2023-04-01T07:26:39;99095.94;;;10.92;100.00
37238;BME280;23129;49.662;8.448;2023-04-01T07:29:14;99108.97;;;10.93;100.00
37238;BME280;23129;49.662;8.448;2023-04-01T07:32:14;99107.13;;;10.95;100.00
37238;BME280;23129;49.662;8.448;2023-04-01T07:35:07;99098.25;;;10.98;100.00
37238;BME280;23129;49.662;8.448;2023-04-01T07:37:46;99090.97;;;11.03;100.00
37238;BME280;23129;49.662;8.448;2023-04-01T07:40:25;99107.41;;;11.07;100.00
37238;BME280;23129;49.662;8.448;2023-04-01T07:46:24;99108.13;;;11.10;100.00
37238;BME280;23129;49.662;8.448;2023-04-01T07:49:03;99105.41;;;11.12;100.00
37238;BME280;23129;49.662;8.448;2023-04-01T07:51:43;99095.69;;;11.14;100.00
37238;BME280;23129;49.662;8.448;2023-04-01T07:54:26;99116.41;;;11.18;100.00
37238;BME280;23129;49.662;8.448;2023-04-01T07:57:02;99107.53;;;11.21;100.00
37238;BME280;23129;49.662;8.448;2023-04-01T07:59:58;99111.88;;;11.22;100.00
37238;BME280;23129;49.662;8.448;2023-04-01T08:03:05;99103.06;;;11.23;100.00
37238;BME280;23129;49.662;8.448;2023-04-01T08:05:46;99110.78;;;11.26;100.00
37238;BME280;23129;49.662;8.448;2023-04-01T08:08:26;99105.38;;;11.29;100.00
37238;BME280;23129;49.662;8.448;2023-04-01T08:11:06;99110.47;;;11.32;100.00
37238;BME280;23129;49.662;8.448;2023-04-01T08:14:07;99102.59;;;11.32;100.00
37238;BME280;23129;49.662;8.448;2023-04-01T08:16:52;99135.78;;;11.33;100.00
37238;BME280;23129;49.662;8.448;2023-04-01T08:19:48;99121.91;;;11.31;100.00
37238;BME280;23129;49.662;8.448;2023-04-01T08:22:25;99117.50;;;11.32;100.00
37238;BME280;23129;49.662;8.448;2023-04-01T08:25:03;99121.06;;;11.31;100.00
37238;BME280;23129;49.662;8.448;2023-04-01T08:27:38;99120.19;;;11.30;100.00
37238;BME280;23129;49.662;8.448;2023-04-01T08:30:19;99142.91;;;11.31;100.00
37238;BME280;23129;49.662;8.448;2023-04-01T08:32:54;99127.00;;;11.34;100.00
37238;BME280;23129;49.662;8.448;2023-04-01T08:35:30;99130.34;;;11.36;100.00
37238;BME280;23129;49.662;8.448;2023-04-01T08:38:10;99132.81;;;11.39;100.00
37238;BME280;23129;49.662;8.448;2023-04-01T08:40:59;99144.94;;;11.42;100.00
37238;BME280;23129;49.662;8.448;2023-04-01T08:44:23;99135.22;;;11.44;100.00
37238;BME280;23129;49.662;8.448;2023-04-01T08:47:24;99135.00;;;11.49;100.00
37238;BME280;23129;49.662;8.448;2023-04-01T08:50:19;99139.13;;;11.53;100.00
37238;BME280;23129;49.662;8.448;2023-04-01T08:53:08;99130.31;;;11.54;100.00
37238;BME280;23129;49.662;8.448;2023-04-01T08:55:51;99139.75;;;11.58;100.00
37238;BME280;23129;49.662;8.448;2023-04-01T08:59:08;99134.34;;;11.61;100.00
37238;BME280;23129;49.662;8.448;2023-04-01T09:02:12;99132.47;;;11.63;100.00
37238;BME280;23129;49.662;8.448;2023-04-01T09:08:19;99148.75;;;11.70;100.00
37238;BME280;23129;49.662;8.448;2023-04-01T09:11:04;99142.47;;;11.72;100.00
37238;BME280;23129;49.662;8.448;2023-04-01T09:14:09;99140.78;;;11.71;100.00
37238;BME280;23129;49.662;8.448;2023-04-01T09:20:03;99151.38;;;11.70;100.00
37238;BME280;23129;49.662;8.448;2023-04-01T09:22:50;99164.53;;;11.70;100.00
37238;BME280;23129;49.662;8.448;2023-04-01T09:25:37;99150.44;;;11.71;100.00
37238;BME280;23129;49.662;8.448;2023-04-01T09:28:10;99155.78;;;11.69;100.00
37238;BME280;23129;49.662;8.448;2023-04-01T09:31:17;99152.22;;;11.70;100.00
37238;BME280;23129;49.662;8.448;2023-04-01T09:34:26;99161.63;;;11.74;100.00
37238;BME280;23129;49.662;8.448;2023-04-01T09:37:18;99152.75;;;11.77;100.00
37238;BME280;23129;49.662;8.448;2023-04-01T09:40:17;99164.09;;;11.77;100.00
37238;BME280;23129;49.662;8.448;2023-04-01T09:43:19;99154.38;;;11.79;100.00
37238;BME280;23129;49.662;8.448;2023-04-01T09:46:18;99157.72;;;11.81;100.00
37238;BME280;23129;49.662;8.448;2023-04-01T09:49:18;99161.09;;;11.85;100.00
37238;BME280;23129;49.662;8.448;2023-04-01T09:52:05;99163.56;;;11.88;100.00
37238;BME280;23129;49.662;8.448;2023-04-01T09:54:56;99158.16;;;11.91;100.00
37238;BME280;23129;49.662;8.448;2023-04-01T09:58:06;99171.19;;;11.93;100.00
37238;BME280;23129;49.662;8.448;2023-04-01T10:01:45;99164.91;;;11.95;100.00
37238;BME280;23129;49.662;8.448;2023-04-01T10:08:24;99177.81;;;12.00;100.00
37238;BME280;23129;49.662;8.448;2023-04-01T10:11:29;99172.41;;;12.03;100.00
37238;BME280;23129;49.662;8.448;2023-04-01T10:17:49;99161.72;;;12.06;100.00
37238;BME280;23129;49.662;8.448;2023-04-01T10:21:04;99173.41;;;12.16;100.00
37238;BME280;23129;49.662;8.448;2023-04-01T10:24:06;99184.19;;;12.27;100.00
37238;BME280;23129;49.662;8.448;2023-04-01T10:27:36;99167.13;;;12.34;100.00
37238;BME280;23129;49.662;8.448;2023-04-01T10:34:22;99168.50;;;12.42;100.00
37238;BME280;23129;49.662;8.448;2023-04-01T10:36:58;99167.28;;;12.47;100.00
37238;BME280;23129;49.662;8.448;2023-04-01T10:47:30;99186.97;;;12.56;100.00
37238;BME280;23129;49.662;8.448;2023-04-01T10:50:29;99179.19;;;12.54;100.00
37238;BME280;23129;49.662;8.448;2023-04-01T10:53:44;99175.78;;;12.52;100.00
37238;BME280;23129;49.662;8.448;2023-04-01T10:56:41;99178.50;;;12.51;100.00
37238;BME280;23129;49.662;8.448;2023-04-01T11:00:06;99173.59;;;12.45;100.00
37238;BME280;23129;49.662;8.448;2023-04-01T11:10:51;99180.38;;;12.49;100.00
37238;BME280;23129;49.662;8.448;2023-04-01T11:20:45;99182.41;;;12.44;100.00
37238;BME280;23129;49.662;8.448;2023-04-01T11:23:50;99189.19;;;12.48;100.00
37238;BME280;23129;49.662;8.448;2023-04-01T11:26:51;99185.47;;;12.52;100.00
37238;BME280;23129;49.662;8.448;2023-04-01T11:32:54;99185.28;;;12.55;100.00
37238;BME280;23129;49.662;8.448;2023-04-01T11:35:52;99183.78;;;12.51;100.00
37238;BME280;23129;49.662;8.448;2023-04-01T11:38:47;99191.50;;;12.54;100.00
37238;BME280;23129;49.662;8.448;2023-04-01T11:41:49;99192.06;;;12.59;100.00
37238;BME280;23129;49.662;8.448;2023-04-01T11:45:00;99195.94;;;12.68;100.00
37238;BME280;23129;49.662;8.448;2023-04-01T11:48:17;99199.00;;;12.76;100.00
37238;BME280;23129;49.662;8.448;2023-04-01T11:51:33;99208.94;;;12.87;100.00
37238;BME280;23129;49.662;8.448;2023-04-01T11:54:26;99201.69;;;12.90;100.00
37238;BME280;23129;49.662;8.448;2023-04-01T11:57:12;99206.13;;;12.90;100.00
37238;BME280;23129;49.662;8.448;2023-04-01T12:00:21;99236.16;;;12.86;100.00
37238;BME280;23129;49.662;8.448;2023-04-01T12:03:11;99201.22;;;12.84;100.00
37238;BME280;23129;49.662;8.448;2023-04-01T12:05:50;99207.22;;;12.86;100.00
37238;BME280;23129;49.662;8.448;2023-04-01T12:08:37;99206.13;;;12.90;100.00
37238;BME280;23129;49.662;8.448;2023-04-01T12:11:17;99210.25;;;12.94;100.00
37238;BME280;23129;49.662;8.448;2023-04-01T12:13:55;99221.19;;;13.02;100.00
37238;BME280;23129;49.662;8.448;2023-04-01T12:17:02;99219.31;;;13.04;100.00
37238;BME280;23129;49.662;8.448;2023-04-01T12:19:42;99219.13;;;13.07;100.00
37238;BME280;23129;49.662;8.448;2023-04-01T12:22:29;99216.50;;;13.07;100.00
37238;BME280;23129;49.662;8.448;2023-04-01T12:25:18;99220.84;;;13.08;100.00
37238;BME280;23129;49.662;8.448;2023-04-01T12:28:06;99229.75;;;13.06;100.00
37238;BME280;23129;49.662;8.448;2023-04-01T12:30:57;99224.75;;;13.01;100.00
37238;BME280;23129;49.662;8.448;2023-04-01T12:36:52;99222.22;;;12.99;100.00
37238;BME280;23129;49.662;8.448;2023-04-01T12:39:37;99223.72;;;13.03;100.00
37238;BME280;23129;49.662;8.448;2023-04-01T12:42:22;99233.25;;;13.06;100.00
37238;BME280;23129;49.662;8.448;2023-04-01T12:45:16;99220.00;;;13.08;100.00
37238;BME280;23129;49.662;8.448;2023-04-01T12:48:16;99213.88;;;13.07;100.00
37238;BME280;23129;49.662;8.448;2023-04-01T12:51:35;99218.28;;;13.07;100.00
37238;BME280;23129;49.662;8.448;2023-04-01T12:54:25;99223.06;;;13.00;100.00
37238;BME280;23129;49.662;8.448;2023-04-01T12:57:14;99219.66;;;12.98;100.00
37238;BME280;23129;49.662;8.448;2023-04-01T13:00:11;99216.84;;;13.01;100.00
37238;BME280;23129;49.662;8.448;2023-04-01T13:02:57;99235.28;;;13.01;100.00
37238;BME280;23129;49.662;8.448;2023-04-01T13:06:05;99235.44;;;12.98;100.00
37238;BME280;23129;49.662;8.448;2023-04-01T13:08:50;99224.25;;;12.94;100.00
37238;BME280;23129;49.662;8.448;2023-04-01T13:11:28;99224.19;;;12.96;100.00
37238;BME280;23129;49.662;8.448;2023-04-01T13:14:31;99232.25;;;12.93;100.00
37238;BME280;23129;49.662;8.448;2023-04-01T13:17:11;99239.22;;;12.94;100.00
37238;BME280;23129;49.662;8.448;2023-04-01T13:19:48;99234.72;;;12.96;100.00
37238;BME280;23129;49.662;8.448;2023-04-01T13:22:46;99252.38;;;12.94;100.00
37238;BME280;23129;49.662;8.448;2023-04-01T13:25:27;99257.47;;;12.97;100.00
37238;BME280;23129;49.662;8.448;2023-04-01T13:28:12;99253.13;;;12.96;100.00
37238;BME280;23129;49.662;8.448;2023-04-01T13:30:49;99258.47;;;12.94;100.00
37238;BME280;23129;49.662;8.448;2023-04-01T13:33:30;99270.13;;;12.90;100.00
37238;BME280;23129;49.662;8.448;2023-04-01T13:36:14;99258.06;;;12.86;100.00
37238;BME280;23129;49.662;8.448;2023-04-01T13:39:31;99258.22;;;12.83;100.00
37238;BME280;23129;49.662;8.448;2023-04-01T13:42:15;99249.41;;;12.84;100.00
37238;BME280;23129;49.662;8.448;2023-04-01T13:44:49;99254.69;;;12.84;100.00
37238;BME280;23129;49.662;8.448;2023-04-01T13:47:56;99259.16;;;12.82;100.00
37238;BME280;23129;49.662;8.448;2023-04-01T13:50:42;99271.38;;;12.83;100.00
37238;BME280;23129;49.662;8.448;2023-04-01T13:53:57;99260.97;;;12.82;100.00
37238;BME280;23129;49.662;8.448;2023-04-01T13:56:36;99267.72;;;12.86;100.00
37238;BME280;23129;49.662;8.448;2023-04-01T13:59:45;99265.88;;;12.88;100.00
37238;BME280;23129;49.662;8.448;2023-04-01T14:05:54;99276.06;;;12.94;100.00
37238;BME280;23129;49.662;8.448;2023-04-01T14:08:42;99276.22;;;12.91;100.00
37238;BME280;23129;49.662;8.448;2023-04-01T14:11:22;99296.13;;;12.81;100.00
37238;BME280;23129;49.662;8.448;2023-04-01T14:14:05;99281.56;;;12.73;100.00
37238;BME280;23129;49.662;8.448;2023-04-01T14:17:10;99285.31;;;12.69;100.00
37238;BME280;23129;49.662;8.448;2023-04-01T14:23:06;99266.66;;;12.58;100.00
37238;BME280;23129;49.662;8.448;2023-04-01T14:28:43;99282.44;;;12.58;100.00
37238;BME280;23129;49.662;8.448;2023-04-01T14:31:48;99283.38;;;12.57;100.00
37238;BME280;23129;49.662;8.448;2023-04-01T14:34:34;99300.84;;;12.58;100.00
37238;BME280;23129;49.662;8.448;2023-04-01T14:37:31;99299.16;;;12.57;100.00
37238;BME280;23129;49.662;8.448;2023-04-01T14:40:22;99293.88;;;12.57;100.00
37238;BME280;23129;49.662;8.448;2023-04-01T14:43:10;99294.91;;;12.54;100.00
37238;BME280;23129;49.662;8.448;2023-04-01T14:46:23;99299.66;;;12.48;100.00
37238;BME280;23129;49.662;8.448;2023-04-01T14:48:59;99303.84;;;12.34;100.00
37238;BME280;23129;49.662;8.448;2023-04-01T14:51:32;99308.16;;;12.20;100.00
37238;BME280;23129;49.662;8.448;2023-04-01T14:54:07;99313.03;;;12.10;100.00
37238;BME280;23129;49.662;8.448;2023-04-01T14:56:43;99323.03;;;12.03;100.00
37238;BME280;23129;49.662;8.448;2023-04-01T14:59:25;99331.94;;;12.01;100.00
37238;BME280;23129;49.662;8.448;2023-04-01T15:02:01;99310.75;;;12.04;100.00
37238;BME280;23129;49.662;8.448;2023-04-01T15:04:53;99332.38;;;12.09;100.00
37238;BME280;23129;49.662;8.448;2023-04-01T15:08:03;99325.88;;;12.16;100.00
37238;BME280;23129;49.662;8.448;2023-04-01T15:11:07;99321.81;;;12.26;100.00
37238;BME280;23129;49.662;8.448;2023-04-01T15:14:14;99321.34;;;12.36;100.00
37238;BME280;23129;49.662;8.448;2023-04-01T15:16:58;99334.59;;;12.50;100.00
37238;BME280;23129;49.662;8.448;2023-04-01T15:19:40;99319.84;;;12.63;100.00